Check out our new BloomSky Weather System.

Active alerts


No alerts


Thunder radar  blitzortung!


Rain radar more information rain snow radar


Visit our other weather sites:

Template documentation
and downloads

And another site



Weather Underground History page Text

Daily Summary for February 7, 2017 Units:  English    Metric   Both
« Previous Day
Next Day »
Daily Weekly Monthly Yearly Custom
  High: Low: Average:
Temperature: 86.2 °F 66.7 °F 75 °F
Dew Point: 70.3 °F 56.5 °F 64.8 °F
Humidity: 94 % 39 % 73 %
Wind Speed: 15.0 mph 0.0 mph 3.1 mph
Wind Gust: 17.0 mph - -
Wind:- - SSW
Pressure: 29.85 in 29.72 in -
Precipitation: 0.00 in    
Historical Graphs
 
 
Tabular Data for February 7, 2017
Time Temperature Dew Point Pressure Wind Wind Speed Wind Gust Humidity Rainfall Rate (Hourly)
00:01 71.2 °F 67.8 °F 29.84 in SSE 5.0 mph 13.0 mph 89 % 0.00 in
00:07 71.2 °F 67.8 °F 29.84 in SSE 6.0 mph 13.0 mph 89 % 0.00 in
00:12 71.1 °F 67.6 °F 29.84 in SE 7.0 mph 15.0 mph 89 % 0.00 in
00:17 71.1 °F 67.6 °F 29.84 in SSE 5.0 mph 15.0 mph 89 % 0.00 in
00:22 71.1 °F 67.6 °F 29.84 in SSE 9.0 mph 15.0 mph 89 % 0.00 in
00:27 71.1 °F 67.6 °F 29.84 in ESE 6.0 mph 13.0 mph 89 % 0.00 in
00:32 70.9 °F 67.5 °F 29.83 in SE 8.0 mph 14.0 mph 89 % 0.00 in
00:37 70.9 °F 67.8 °F 29.83 in South 5.0 mph 14.0 mph 90 % 0.00 in
00:42 70.7 °F 67.6 °F 29.83 in South 8.0 mph 14.0 mph 90 % 0.00 in
00:47 70.9 °F 67.8 °F 29.83 in SSE 4.0 mph 11.0 mph 90 % 0.00 in
00:52 70.9 °F 67.8 °F 29.83 in South 11.0 mph 16.0 mph 90 % 0.00 in
00:57 70.9 °F 67.8 °F 29.83 in South 6.0 mph 16.0 mph 90 % 0.00 in
01:02 70.9 °F 67.5 °F 29.83 in East 3.0 mph 16.0 mph 89 % 0.00 in
01:07 70.9 °F 67.5 °F 29.84 in SSE 3.0 mph 13.0 mph 89 % 0.00 in
01:12 70.9 °F 67.5 °F 29.83 in South 2.0 mph 13.0 mph 89 % 0.00 in
01:17 71.1 °F 67.6 °F 29.83 in SSW 6.0 mph 12.0 mph 89 % 0.00 in
01:22 71.1 °F 67.6 °F 29.83 in SSE 7.0 mph 12.0 mph 89 % 0.00 in
01:27 71.1 °F 67.6 °F 29.83 in SW 4.0 mph 12.0 mph 89 % 0.00 in
01:32 71.1 °F 67.6 °F 29.83 in SSE 5.0 mph 11.0 mph 89 % 0.00 in
01:37 71.1 °F 67.6 °F 29.83 in SE 5.0 mph 12.0 mph 89 % 0.00 in
01:42 71.1 °F 67.6 °F 29.82 in SSE 4.0 mph 12.0 mph 89 % 0.00 in
01:47 71.2 °F 67.8 °F 29.82 in SSE 15.0 mph 15.0 mph 89 % 0.00 in
01:52 71.2 °F 67.8 °F 29.82 in SW 4.0 mph 15.0 mph 89 % 0.00 in
01:57 71.2 °F 67.8 °F 29.82 in SSW 6.0 mph 15.0 mph 89 % 0.00 in
02:02 71.2 °F 67.5 °F 29.82 in South 10.0 mph 15.0 mph 88 % 0.00 in
02:07 71.2 °F 67.5 °F 29.82 in SSW 5.0 mph 15.0 mph 88 % 0.00 in
02:12 71.2 °F 67.5 °F 29.82 in South 2.0 mph 15.0 mph 88 % 0.00 in
02:17 71.2 °F 67.8 °F 29.82 in SSE 5.0 mph 15.0 mph 89 % 0.00 in
02:22 71.2 °F 67.8 °F 29.82 in SW 6.0 mph 14.0 mph 89 % 0.00 in
02:27 71.2 °F 67.8 °F 29.83 in SSE 5.0 mph 14.0 mph 89 % 0.00 in
02:32 71.2 °F 67.8 °F 29.82 in South 3.0 mph 14.0 mph 89 % 0.00 in
02:37 71.2 °F 67.8 °F 29.82 in SSW 4.0 mph 14.0 mph 89 % 0.00 in
02:42 71.2 °F 67.8 °F 29.82 in SW 7.0 mph 9.0 mph 89 % 0.00 in
02:47 71.2 °F 67.8 °F 29.82 in SSW 4.0 mph 11.0 mph 89 % 0.00 in
02:52 71.2 °F 67.8 °F 29.82 in SE 4.0 mph 13.0 mph 89 % 0.00 in
02:57 71.2 °F 68.2 °F 29.81 in South 7.0 mph 13.0 mph 90 % 0.00 in
03:02 71.2 °F 68.2 °F 29.81 in SW 6.0 mph 14.0 mph 90 % 0.00 in
03:07 71.1 °F 68.0 °F 29.81 in SSE 7.0 mph 14.0 mph 90 % 0.00 in
03:13 71.1 °F 68.0 °F 29.81 in South 8.0 mph 14.0 mph 90 % 0.00 in
03:18 71.1 °F 68.0 °F 29.81 in SE 4.0 mph 12.0 mph 90 % 0.00 in
03:23 71.1 °F 68.0 °F 29.81 in SSE 4.0 mph 11.0 mph 90 % 0.00 in
03:28 71.1 °F 68.0 °F 29.81 in South 5.0 mph 11.0 mph 90 % 0.00 in
03:33 71.1 °F 68.0 °F 29.81 in SW 9.0 mph 12.0 mph 90 % 0.00 in
03:38 71.1 °F 68.0 °F 29.81 in South 3.0 mph 12.0 mph 90 % 0.00 in
03:43 71.1 °F 68.0 °F 29.81 in SSE 4.0 mph 12.0 mph 90 % 0.00 in
03:48 71.1 °F 68.0 °F 29.81 in South 3.0 mph 12.0 mph 90 % 0.00 in
03:53 71.1 °F 68.0 °F 29.81 in SSE 3.0 mph 12.0 mph 90 % 0.00 in
03:58 71.1 °F 68.0 °F 29.81 in SSE 2.0 mph 9.0 mph 90 % 0.00 in
04:03 71.1 °F 68.0 °F 29.81 in SW 2.0 mph 9.0 mph 90 % 0.00 in
04:08 71.1 °F 68.0 °F 29.80 in SSW 3.0 mph 9.0 mph 90 % 0.00 in
04:13 71.2 °F 68.2 °F 29.80 in South 5.0 mph 9.0 mph 90 % 0.00 in
04:18 71.1 °F 68.0 °F 29.80 in SSE 4.0 mph 9.0 mph 90 % 0.00 in
04:23 71.2 °F 68.2 °F 29.79 in South 10.0 mph 11.0 mph 90 % 0.00 in
04:28 71.2 °F 68.2 °F 29.79 in SSW 3.0 mph 11.0 mph 90 % 0.00 in
04:33 71.2 °F 68.2 °F 29.79 in SSW 2.0 mph 11.0 mph 90 % 0.00 in
04:38 71.2 °F 68.2 °F 29.79 in SSW 4.0 mph 11.0 mph 90 % 0.00 in
04:43 71.2 °F 68.2 °F 29.79 in SSW 5.0 mph 11.0 mph 90 % 0.00 in
04:48 71.2 °F 68.2 °F 29.79 in SSE 4.0 mph 12.0 mph 90 % 0.00 in
04:53 71.2 °F 67.8 °F 29.79 in SW 8.0 mph 12.0 mph 89 % 0.00 in
04:58 71.4 °F 68.0 °F 29.79 in SSW 8.0 mph 12.0 mph 89 % 0.00 in
05:03 71.4 °F 68.0 °F 29.79 in SSE 3.0 mph 12.0 mph 89 % 0.00 in
05:08 71.4 °F 68.0 °F 29.79 in SSW 6.0 mph 12.0 mph 89 % 0.00 in
05:14 71.4 °F 68.0 °F 29.79 in SSW 5.0 mph 10.0 mph 89 % 0.00 in
05:19 71.4 °F 68.0 °F 29.80 in SSW 3.0 mph 9.0 mph 89 % 0.00 in
05:24 71.4 °F 68.0 °F 29.80 in SSW 2.0 mph 9.0 mph 89 % 0.00 in
05:29 71.4 °F 68.0 °F 29.80 in SSE 1.0 mph 10.0 mph 89 % 0.00 in
05:34 71.4 °F 68.0 °F 29.79 in SW 5.0 mph 11.0 mph 89 % 0.00 in
05:39 71.6 °F 68.2 °F 29.80 in South 10.0 mph 15.0 mph 89 % 0.00 in
05:44 71.6 °F 68.2 °F 29.80 in SSW 5.0 mph 15.0 mph 89 % 0.00 in
05:49 71.8 °F 68.4 °F 29.80 in SSW 4.0 mph 15.0 mph 89 % 0.00 in
05:54 71.6 °F 68.2 °F 29.80 in South 3.0 mph 15.0 mph 89 % 0.00 in
05:59 71.6 °F 68.2 °F 29.80 in SSW 5.0 mph 12.0 mph 89 % 0.00 in
06:04 71.8 °F 68.4 °F 29.80 in SSW 4.0 mph 13.0 mph 89 % 0.00 in
06:09 71.6 °F 68.2 °F 29.80 in SSE 4.0 mph 13.0 mph 89 % 0.00 in
06:14 71.8 °F 68.4 °F 29.80 in SW 4.0 mph 13.0 mph 89 % 0.00 in
06:19 71.8 °F 68.4 °F 29.81 in SSW 3.0 mph 14.0 mph 89 % 0.00 in
06:24 71.8 °F 68.4 °F 29.81 in SW 3.0 mph 14.0 mph 89 % 0.00 in
06:29 71.8 °F 68.4 °F 29.81 in WSW 3.0 mph 14.0 mph 89 % 0.00 in
06:34 71.8 °F 68.4 °F 29.81 in SW 7.0 mph 12.0 mph 89 % 0.00 in
06:39 72.0 °F 68.5 °F 29.80 in South 5.0 mph 17.0 mph 89 % 0.00 in
06:44 72.0 °F 68.2 °F 29.80 in SSE 7.0 mph 17.0 mph 88 % 0.00 in
06:49 72.0 °F 68.2 °F 29.80 in SW 7.0 mph 17.0 mph 88 % 0.00 in
06:54 72.0 °F 68.5 °F 29.80 in SW 7.0 mph 13.0 mph 89 % 0.00 in
06:59 72.0 °F 68.5 °F 29.80 in SW 2.0 mph 13.0 mph 89 % 0.00 in
07:04 71.8 °F 68.4 °F 29.80 in SSE 7.0 mph 12.0 mph 89 % 0.00 in
07:09 71.8 °F 68.4 °F 29.81 in SW 10.0 mph 11.0 mph 89 % 0.00 in
07:14 71.8 °F 68.4 °F 29.81 in WSW 3.0 mph 11.0 mph 89 % 0.00 in
07:19 71.8 °F 68.4 °F 29.81 in West 2.0 mph 14.0 mph 89 % 0.00 in
07:24 71.8 °F 68.4 °F 29.81 in SW 5.0 mph 14.0 mph 89 % 0.00 in
07:30 71.8 °F 68.4 °F 29.81 in SW 2.0 mph 16.0 mph 89 % 0.00 in
07:35 71.8 °F 68.4 °F 29.81 in SW 5.0 mph 16.0 mph 89 % 0.00 in
07:40 71.6 °F 68.2 °F 29.81 in SE 9.0 mph 16.0 mph 89 % 0.00 in
07:45 71.6 °F 68.2 °F 29.81 in SW 7.0 mph 12.0 mph 89 % 0.00 in
07:50 71.6 °F 68.2 °F 29.81 in WSW 6.0 mph 12.0 mph 89 % 0.00 in
07:51 71.4 °F 68.0 °F 29.81 in East 1.0 mph 12.0 mph 89 % 0.00 in
07:56 71.4 °F 68.0 °F 29.82 in SSW 2.0 mph 10.0 mph 89 % 0.00 in
08:01 71.6 °F 68.2 °F 29.82 in SW 2.0 mph 10.0 mph 89 % 0.00 in
08:06 71.6 °F 68.2 °F 29.83 in SSW 2.0 mph 9.0 mph 89 % 0.00 in
08:11 71.8 °F 68.4 °F 29.83 in SSW 4.0 mph 9.0 mph 89 % 0.00 in
08:16 71.8 °F 68.4 °F 29.82 in WSW 2.0 mph 9.0 mph 89 % 0.00 in
08:21 71.8 °F 68.4 °F 29.83 in SSW 3.0 mph 9.0 mph 89 % 0.00 in
08:26 71.8 °F 68.4 °F 29.83 in SW 4.0 mph 10.0 mph 89 % 0.00 in
08:32 72.0 °F 68.5 °F 29.83 in South 3.0 mph 12.0 mph 89 % 0.00 in
08:37 72.0 °F 68.5 °F 29.83 in SSW 3.0 mph 12.0 mph 89 % 0.00 in
08:42 72.1 °F 68.4 °F 29.83 in SW 4.0 mph 12.0 mph 88 % 0.00 in
08:47 72.3 °F 68.9 °F 29.84 in South 3.0 mph 12.0 mph 89 % 0.00 in
08:48 72.3 °F 68.5 °F 29.84 in SSE 2.0 mph 12.0 mph 88 % 0.00 in
08:53 72.3 °F 68.5 °F 29.84 in SSW 8.0 mph 11.0 mph 88 % 0.00 in
08:58 72.9 °F 69.1 °F 29.84 in WSW 3.0 mph 11.0 mph 88 % 0.00 in
09:03 73.0 °F 68.9 °F 29.84 in South 5.0 mph 11.0 mph 87 % 0.00 in
09:06 73.2 °F 69.4 °F 29.84 in SW 3.0 mph 11.0 mph 88 % 0.00 in
09:11 73.8 °F 69.3 °F 29.84 in South 5.0 mph 8.0 mph 86 % 0.00 in
09:16 73.8 °F 68.9 °F 29.84 in SSW 4.0 mph 8.0 mph 85 % 0.00 in
09:21 73.8 °F 68.9 °F 29.84 in WSW 3.0 mph 8.0 mph 85 % 0.00 in
09:26 73.9 °F 69.1 °F 29.84 in West 1.0 mph 10.0 mph 85 % 0.00 in
09:32 74.5 °F 69.3 °F 29.84 in NW 2.0 mph 10.0 mph 84 % 0.00 in
09:37 74.8 °F 69.6 °F 29.84 in WSW 3.0 mph 11.0 mph 84 % 0.00 in
09:42 74.8 °F 69.3 °F 29.84 in SW 3.0 mph 11.0 mph 83 % 0.00 in
09:47 75.0 °F 69.4 °F 29.84 in SW 4.0 mph 11.0 mph 83 % 0.00 in
09:52 75.0 °F 69.1 °F 29.85 in SW 6.0 mph 10.0 mph 82 % 0.00 in
09:57 75.4 °F 69.4 °F 29.84 in South 4.0 mph 13.0 mph 82 % 0.00 in
10:02 76.3 °F 70.3 °F 29.85 in South 3.0 mph 13.0 mph 82 % 0.00 in
10:07 76.6 °F 69.6 °F 29.85 in SW 2.0 mph 13.0 mph 79 % 0.00 in
10:12 76.8 °F 69.8 °F 29.84 in SW 2.0 mph 11.0 mph 79 % 0.00 in
10:17 77.2 °F 69.8 °F 29.85 in SSW 4.0 mph 11.0 mph 78 % 0.00 in
10:22 77.2 °F 69.4 °F 29.85 in WNW 6.0 mph 13.0 mph 77 % 0.00 in
10:27 77.4 °F 69.6 °F 29.84 in SSW 5.0 mph 14.0 mph 77 % 0.00 in
10:32 77.5 °F 69.8 °F 29.83 in SSW 10.0 mph 14.0 mph 77 % 0.00 in
10:37 77.5 °F 69.8 °F 29.83 in South 2.0 mph 14.0 mph 77 % 0.00 in
10:42 78.1 °F 69.4 °F 29.83 in WNW 4.0 mph 14.0 mph 75 % 0.00 in
10:47 78.4 °F 69.4 °F 29.83 in WSW 6.0 mph 13.0 mph 74 % 0.00 in
10:52 78.4 °F 69.8 °F 29.83 in SW 9.0 mph 13.0 mph 75 % 0.00 in
10:57 78.6 °F 70.0 °F 29.83 in South 4.0 mph 15.0 mph 75 % 0.00 in
11:02 79.2 °F 69.3 °F 29.83 in SW 7.0 mph 15.0 mph 72 % 0.00 in
11:07 80.1 °F 69.4 °F 29.83 in SW 7.0 mph 15.0 mph 70 % 0.00 in
11:12 80.2 °F 68.7 °F 29.83 in South 6.0 mph 12.0 mph 68 % 0.00 in
11:17 80.1 °F 68.9 °F 29.83 in SSW 6.0 mph 12.0 mph 69 % 0.00 in
11:22 79.7 °F 69.1 °F 29.83 in SSW 7.0 mph 12.0 mph 70 % 0.00 in
11:27 80.2 °F 68.7 °F 29.83 in SSE 4.0 mph 15.0 mph 68 % 0.00 in
11:32 80.4 °F 68.9 °F 29.82 in SW 10.0 mph 15.0 mph 68 % 0.00 in
11:37 80.6 °F 69.1 °F 29.83 in NW 4.0 mph 15.0 mph 68 % 0.00 in
11:42 81.1 °F 68.7 °F 29.82 in SSW 3.0 mph 14.0 mph 66 % 0.00 in
11:47 81.3 °F 69.3 °F 29.82 in SW 3.0 mph 14.0 mph 67 % 0.00 in
11:52 81.9 °F 68.5 °F 29.81 in SW 4.0 mph 12.0 mph 64 % 0.00 in
11:57 82.0 °F 68.2 °F 29.81 in SW 3.0 mph 10.0 mph 63 % 0.00 in
12:02 82.0 °F 68.7 °F 29.81 in WNW 3.0 mph 15.0 mph 64 % 0.00 in
12:07 82.0 °F 68.2 °F 29.81 in SE 3.0 mph 15.0 mph 63 % 0.00 in
12:12 82.2 °F 68.9 °F 29.81 in South 3.0 mph 15.0 mph 64 % 0.00 in
12:17 82.9 °F 67.1 °F 29.80 in South 5.0 mph 12.0 mph 59 % 0.00 in
12:22 82.9 °F 66.6 °F 29.80 in West 3.0 mph 12.0 mph 58 % 0.00 in
12:27 83.1 °F 64.8 °F 29.80 in SW 6.0 mph 12.0 mph 54 % 0.00 in
12:32 83.7 °F 66.7 °F 29.80 in West 1.0 mph 12.0 mph 57 % 0.00 in
12:37 83.8 °F 64.9 °F 29.79 in NW 4.0 mph 8.0 mph 53 % 0.00 in
12:42 83.8 °F 64.9 °F 29.79 in NW 2.0 mph 7.0 mph 53 % 0.00 in
12:47 84.4 °F 64.8 °F 29.79 in WSW 2.0 mph 7.0 mph 52 % 0.00 in
12:52 84.7 °F 64.6 °F 29.78 in South 2.0 mph 9.0 mph 51 % 0.00 in
12:57 84.4 °F 64.2 °F 29.78 in South 5.0 mph 9.0 mph 51 % 0.00 in
13:02 84.4 °F 63.7 °F 29.78 in SW 2.0 mph 10.0 mph 50 % 0.00 in
13:07 84.6 °F 62.8 °F 29.78 in West 2.0 mph 12.0 mph 48 % 0.00 in
13:12 84.7 °F 63.5 °F 29.77 in SSW 4.0 mph 12.0 mph 49 % 0.00 in
13:17 84.9 °F 64.8 °F 29.77 in West 4.0 mph 12.0 mph 51 % 0.00 in
13:22 85.5 °F 63.0 °F 29.77 in WSW 4.0 mph 9.0 mph 47 % 0.00 in
13:27 85.5 °F 61.7 °F 29.77 in Calm   9.0 mph 45 % 0.00 in
13:32 84.9 °F 61.2 °F 29.76 in North 3.0 mph 11.0 mph 45 % 0.00 in
13:37 84.6 °F 61.5 °F 29.76 in WSW 3.0 mph 11.0 mph 46 % 0.00 in
13:42 84.7 °F 60.4 °F 29.76 in West 4.0 mph 11.0 mph 44 % 0.00 in
13:47 84.7 °F 59.7 °F 29.76 in WNW 4.0 mph 9.0 mph 43 % 0.00 in
13:52 84.9 °F 61.9 °F 29.76 in SW 5.0 mph 11.0 mph 46 % 0.00 in
13:57 85.1 °F 62.1 °F 29.75 in SW 2.0 mph 11.0 mph 46 % 0.00 in
14:02 85.6 °F 61.2 °F 29.75 in WNW 2.0 mph 11.0 mph 44 % 0.00 in
14:07 85.8 °F 60.1 °F 29.75 in WNW 5.0 mph 8.0 mph 42 % 0.00 in
14:12 85.8 °F 60.8 °F 29.75 in SW 4.0 mph 8.0 mph 43 % 0.00 in
14:17 86.2 °F 59.7 °F 29.75 in WSW 2.0 mph 8.0 mph 41 % 0.00 in
14:27 85.5 °F 59.0 °F 29.75 in SW 1.0 mph 9.0 mph 41 % 0.00 in
14:32 85.3 °F 59.5 °F 29.74 in WNW 2.0 mph 9.0 mph 42 % 0.00 in
14:37 85.3 °F 60.3 °F 29.75 in WSW 3.0 mph 9.0 mph 43 % 0.00 in
14:42 85.5 °F 60.4 °F 29.75 in West 4.0 mph 7.0 mph 43 % 0.00 in
14:48 85.6 °F 59.9 °F 29.75 in SW 1.0 mph 7.0 mph 42 % 0.00 in
14:53 85.6 °F 59.9 °F 29.74 in WNW 1.0 mph 7.0 mph 42 % 0.00 in
14:58 85.8 °F 60.1 °F 29.74 in West 5.0 mph 6.0 mph 42 % 0.00 in
15:03 85.5 °F 57.7 °F 29.74 in WNW 2.0 mph 7.0 mph 39 % 0.00 in
15:08 85.5 °F 58.5 °F 29.74 in WSW 2.0 mph 7.0 mph 40 % 0.00 in
15:13 85.6 °F 58.5 °F 29.74 in South 2.0 mph 8.0 mph 40 % 0.00 in
15:18 85.8 °F 58.6 °F 29.74 in SW 2.0 mph 8.0 mph 40 % 0.00 in
15:23 85.6 °F 57.9 °F 29.74 in SW 4.0 mph 8.0 mph 39 % 0.00 in
15:28 85.3 °F 58.3 °F 29.74 in West 3.0 mph 7.0 mph 40 % 0.00 in
15:33 84.9 °F 58.6 °F 29.74 in West 1.0 mph 6.0 mph 41 % 0.00 in
15:38 84.7 °F 58.5 °F 29.73 in NW 1.0 mph 6.0 mph 41 % 0.00 in
15:43 84.7 °F 59.2 °F 29.73 in SW 2.0 mph 5.0 mph 42 % 0.00 in
15:48 84.7 °F 57.7 °F 29.73 in WNW 2.0 mph 5.0 mph 40 % 0.00 in
15:53 84.7 °F 57.7 °F 29.73 in West 2.0 mph 6.0 mph 40 % 0.00 in
15:58 84.7 °F 58.5 °F 29.73 in SW 1.0 mph 6.0 mph 41 % 0.00 in
16:03 84.6 °F 58.3 °F 29.73 in WSW 1.0 mph 6.0 mph 41 % 0.00 in
16:08 84.6 °F 59.5 °F 29.73 in SW 3.0 mph 4.0 mph 43 % 0.00 in
16:13 84.4 °F 57.4 °F 29.73 in SW 2.0 mph 8.0 mph 40 % 0.00 in
16:18 84.0 °F 56.5 °F 29.73 in Calm   8.0 mph 39 % 0.00 in
16:23 83.8 °F 57.0 °F 29.73 in SSW 2.0 mph 8.0 mph 40 % 0.00 in
16:28 83.8 °F 58.3 °F 29.72 in West 1.0 mph 6.0 mph 42 % 0.00 in
16:33 83.8 °F 57.6 °F 29.72 in WSW 1.0 mph 6.0 mph 41 % 0.00 in
16:39 84.0 °F 57.0 °F 29.72 in SW 1.0 mph 6.0 mph 40 % 0.00 in
16:44 84.0 °F 57.7 °F 29.72 in SSW 1.0 mph 4.0 mph 41 % 0.00 in
16:49 84.0 °F 58.5 °F 29.72 in SSW 2.0 mph 4.0 mph 42 % 0.00 in
16:54 83.8 °F 58.3 °F 29.72 in South 1.0 mph 4.0 mph 42 % 0.00 in
16:59 83.7 °F 57.4 °F 29.72 in SW 1.0 mph 4.0 mph 41 % 0.00 in
17:04 83.7 °F 58.8 °F 29.72 in Calm   4.0 mph 43 % 0.00 in
17:09 83.5 °F 58.6 °F 29.72 in Calm   4.0 mph 43 % 0.00 in
17:14 83.1 °F 58.3 °F 29.72 in WSW 1.0 mph 3.0 mph 43 % 0.00 in
17:19 82.9 °F 58.1 °F 29.72 in Calm   3.0 mph 43 % 0.00 in
17:24 82.8 °F 58.6 °F 29.72 in Calm   3.0 mph 44 % 0.00 in
17:29 82.4 °F 58.3 °F 29.72 in Calm   3.0 mph 44 % 0.00 in
17:34 81.9 °F 58.5 °F 29.72 in Calm   2.0 mph 45 % 0.00 in
17:39 81.3 °F 58.6 °F 29.72 in Calm   1.0 mph 46 % 0.00 in
17:44 80.8 °F 58.6 °F 29.72 in Calm   1.0 mph 47 % 0.00 in
17:49 80.1 °F 58.6 °F 29.72 in Calm   1.0 mph 48 % 0.00 in
17:54 79.3 °F 58.5 °F 29.72 in Calm   1.0 mph 49 % 0.00 in
17:59 78.6 °F 58.5 °F 29.72 in Calm   1.0 mph 50 % 0.00 in
18:04 78.1 °F 58.5 °F 29.72 in Calm   1.0 mph 51 % 0.00 in
18:09 77.5 °F 57.9 °F 29.72 in Calm   1.0 mph 51 % 0.00 in
18:14 76.8 °F 57.9 °F 29.72 in Calm   1.0 mph 52 % 0.00 in
18:19 76.1 °F 57.7 °F 29.72 in Calm     53 % 0.00 in
18:24 75.4 °F 58.1 °F 29.72 in Calm     55 % 0.00 in
18:29 74.8 °F 58.1 °F 29.72 in Calm     56 % 0.00 in
18:35 74.5 °F 58.8 °F 29.72 in Calm     58 % 0.00 in
18:40 73.9 °F 58.3 °F 29.72 in Calm     58 % 0.00 in
18:45 73.8 °F 58.5 °F 29.72 in Calm     59 % 0.00 in
18:50 73.2 °F 58.5 °F 29.72 in Calm     60 % 0.00 in
18:55 72.9 °F 58.1 °F 29.73 in Calm     60 % 0.00 in
19:00 72.1 °F 57.9 °F 29.73 in Calm     61 % 0.00 in
19:05 71.6 °F 57.9 °F 29.73 in Calm     62 % 0.00 in
19:10 71.2 °F 58.5 °F 29.73 in Calm     64 % 0.00 in
19:15 71.1 °F 58.6 °F 29.73 in Calm     65 % 0.00 in
19:20 71.1 °F 58.6 °F 29.73 in Calm     65 % 0.00 in
19:25 70.9 °F 58.5 °F 29.73 in Calm     65 % 0.00 in
19:30 70.3 °F 58.5 °F 29.73 in Calm     66 % 0.00 in
19:35 70.0 °F 58.1 °F 29.73 in Calm     66 % 0.00 in
19:40 69.4 °F 57.9 °F 29.73 in Calm     67 % 0.00 in
19:45 69.4 °F 58.8 °F 29.73 in Calm     69 % 0.00 in
19:50 69.4 °F 58.5 °F 29.73 in Calm     68 % 0.00 in
19:55 69.1 °F 58.5 °F 29.73 in Calm     69 % 0.00 in
20:00 68.9 °F 58.3 °F 29.73 in Calm     69 % 0.00 in
20:05 68.7 °F 58.5 °F 29.73 in Calm     70 % 0.00 in
20:10 68.9 °F 59.2 °F 29.74 in Calm     71 % 0.00 in
20:15 69.3 °F 59.0 °F 29.74 in Calm   1.0 mph 70 % 0.00 in
20:20 69.3 °F 59.0 °F 29.74 in Calm   1.0 mph 70 % 0.00 in
20:25 69.3 °F 59.0 °F 29.74 in Calm   1.0 mph 70 % 0.00 in
20:30 68.9 °F 58.6 °F 29.74 in Calm     70 % 0.00 in
20:35 68.4 °F 58.3 °F 29.74 in Calm     70 % 0.00 in
20:40 67.6 °F 57.6 °F 29.74 in Calm     70 % 0.00 in
20:45 66.9 °F 57.6 °F 29.75 in Calm     72 % 0.00 in
20:50 66.7 °F 58.1 °F 29.75 in SSW 1.0 mph   74 % 0.00 in
20:55 66.9 °F 58.8 °F 29.75 in SSE 2.0 mph 3.0 mph 75 % 0.00 in
21:01 67.6 °F 59.0 °F 29.75 in South 3.0 mph 3.0 mph 74 % 0.00 in
21:06 68.5 °F 59.9 °F 29.75 in SSW 1.0 mph 4.0 mph 74 % 0.00 in
21:11 69.3 °F 60.6 °F 29.76 in SSW 1.0 mph 4.0 mph 74 % 0.00 in
21:16 69.6 °F 61.3 °F 29.76 in Calm   4.0 mph 75 % 0.00 in
21:21 69.6 °F 61.3 °F 29.76 in Calm   3.0 mph 75 % 0.00 in
21:26 69.6 °F 61.3 °F 29.76 in South 1.0 mph 3.0 mph 75 % 0.00 in
21:31 69.6 °F 61.7 °F 29.77 in Calm   1.0 mph 76 % 0.00 in
21:36 69.4 °F 61.5 °F 29.76 in Calm   1.0 mph 76 % 0.00 in
21:41 69.4 °F 61.9 °F 29.77 in Calm   1.0 mph 77 % 0.00 in
21:46 69.6 °F 63.1 °F 29.77 in South 1.0 mph 2.0 mph 80 % 0.00 in
21:51 69.8 °F 63.7 °F 29.77 in Calm   2.0 mph 81 % 0.00 in
21:56 69.6 °F 63.9 °F 29.77 in SSW 1.0 mph 2.0 mph 82 % 0.00 in
22:01 69.4 °F 63.7 °F 29.77 in SSW 1.0 mph 3.0 mph 82 % 0.00 in
22:06 69.4 °F 64.4 °F 29.77 in South 1.0 mph 3.0 mph 84 % 0.00 in
22:11 69.6 °F 65.3 °F 29.76 in SSW 1.0 mph 3.0 mph 86 % 0.00 in
22:16 69.6 °F 65.7 °F 29.76 in SSE 1.0 mph 3.0 mph 87 % 0.00 in
22:21 69.6 °F 65.8 °F 29.77 in South 3.0 mph 4.0 mph 88 % 0.00 in
22:26 69.6 °F 66.2 °F 29.77 in South 2.0 mph 5.0 mph 89 % 0.00 in
22:31 69.8 °F 66.7 °F 29.77 in SSW 1.0 mph 5.0 mph 90 % 0.00 in
22:36 69.8 °F 66.7 °F 29.77 in SSE 1.0 mph 5.0 mph 90 % 0.00 in
22:41 69.8 °F 67.1 °F 29.77 in SSW 2.0 mph 6.0 mph 91 % 0.00 in
22:46 69.8 °F 67.1 °F 29.77 in SW 2.0 mph 6.0 mph 91 % 0.00 in
22:51 69.8 °F 67.1 °F 29.77 in SSW 1.0 mph 6.0 mph 91 % 0.00 in
22:56 69.6 °F 66.9 °F 29.77 in SSW 4.0 mph 4.0 mph 91 % 0.00 in
23:01 69.6 °F 66.9 °F 29.77 in WNW 3.0 mph 5.0 mph 91 % 0.00 in
23:06 69.6 °F 67.3 °F 29.77 in SSW 2.0 mph 6.0 mph 92 % 0.00 in
23:12 69.4 °F 67.1 °F 29.77 in SSW 3.0 mph 6.0 mph 92 % 0.00 in
23:17 69.3 °F 66.9 °F 29.77 in SW 1.0 mph 6.0 mph 92 % 0.00 in
23:22 69.3 °F 66.9 °F 29.77 in SSW 1.0 mph 6.0 mph 92 % 0.00 in
23:27 69.1 °F 66.9 °F 29.77 in SSW 3.0 mph 6.0 mph 93 % 0.00 in
23:32 68.7 °F 66.6 °F 29.76 in SW 3.0 mph 6.0 mph 93 % 0.00 in
23:37 68.7 °F 66.6 °F 29.76 in SW 3.0 mph 4.0 mph 93 % 0.00 in
23:41 68.7 °F 66.6 °F 29.76 in Calm   8.0 mph 93 % 0.00 in
23:46 68.5 °F 66.4 °F 29.76 in South 1.0 mph 8.0 mph 93 % 0.00 in
23:51 68.4 °F 66.6 °F 29.76 in SSW 1.0 mph 8.0 mph 94 % 0.00 in
23:57 68.4 °F 66.6 °F 29.76 in SSE 1.0 mph 3.0 mph 94 % 0.00 in
Spring, Texas: Villages of Bridgestone
Compliments of Weather Underground - 3 mb

Script developed by  Jim McMurry - jmcmurry@mwt.net Adapted for the template by  Wim van der Kuil - Leuven-Template.eu

You find our weather info also at:

UK Metoffice

WeatherCloud

Weather Underground

Mid-South Weather Network

AWEKAS

Citizen Weather Observer Program (CWOP)

HAMweather, WeatherForYou, PWS Weather

Equipment we use:

Weather-station
Davis Vantage Vue

Weather-program
Meteohub

Weather-server
Debian 7.9 x86 (Guest)

Provider
DreamHost

Davis Vantage Vue

Meteohub

Debian 7.9 x86 (Guest)

DreamHost